createdAt,value
2018-04-19T00:01:18.383Z,56.42
2018-04-19T00:03:46.667Z,56.76
2018-04-19T00:06:14.936Z,56.66
2018-04-19T00:08:43.218Z,56.54
2018-04-19T00:11:11.495Z,55.39
2018-04-19T00:13:39.778Z,55.82
2018-04-19T00:16:08.060Z,56.10
2018-04-19T00:18:36.351Z,55.23
2018-04-19T00:21:04.626Z,55.56
2018-04-19T00:23:32.910Z,55.43
2018-04-19T00:26:01.191Z,55.71
2018-04-19T00:28:29.458Z,54.67
2018-04-19T00:30:57.735Z,55.19
2018-04-19T00:33:26.013Z,56.76
2018-04-19T00:35:54.305Z,56.63
2018-04-19T00:38:22.624Z,56.34
2018-04-19T00:40:51.104Z,56.57
2018-04-19T00:43:19.375Z,55.75
2018-04-19T00:45:47.657Z,56.54
2018-04-19T00:48:15.954Z,56.52
2018-04-19T00:50:44.230Z,56.79
2018-04-19T00:53:12.510Z,57.12
2018-04-19T00:55:40.782Z,57.50
2018-04-19T00:58:09.058Z,57.89
2018-04-19T01:00:37.328Z,57.94
2018-04-19T01:03:05.614Z,57.06
2018-04-19T01:05:33.887Z,57.37
2018-04-19T01:08:02.167Z,59.64
2018-04-19T01:10:30.458Z,59.16
2018-04-19T01:12:58.738Z,58.86
2018-04-19T01:15:27.026Z,58.69
2018-04-19T01:17:55.294Z,58.44
2018-04-19T01:20:23.590Z,58.83
2018-04-19T01:22:51.859Z,59.17
2018-04-19T01:25:20.186Z,59.83
2018-04-19T01:27:48.450Z,60.07
2018-04-19T01:30:16.736Z,59.27
2018-04-19T01:32:45.018Z,59.51
2018-04-19T01:35:13.303Z,59.52
2018-04-19T01:37:41.577Z,59.81
2018-04-19T01:40:09.858Z,60.23
2018-04-19T01:42:38.138Z,59.24
2018-04-19T01:45:06.414Z,59.43
2018-04-19T01:47:34.690Z,60.23
2018-04-19T01:50:03.007Z,60.29
2018-04-19T01:52:31.281Z,59.70
2018-04-19T01:54:59.573Z,60.48
2018-04-19T01:57:27.847Z,60.54
2018-04-19T01:59:56.126Z,60.58
2018-04-19T02:02:24.398Z,60.91
2018-04-19T02:04:52.682Z,62.11
2018-04-19T02:07:20.988Z,61.92
2018-04-19T02:09:49.271Z,61.33
2018-04-19T02:12:19.508Z,61.75
2018-04-19T02:14:47.774Z,61.94
2018-04-19T02:17:16.064Z,62.16
2018-04-19T02:19:44.346Z,61.61
2018-04-19T02:22:12.630Z,62.55
2018-04-19T02:24:40.898Z,62.53
2018-04-19T02:27:09.210Z,62.46
2018-04-19T02:29:37.490Z,61.86
2018-04-19T02:32:05.779Z,62.26
2018-04-19T02:34:34.062Z,62.95
2018-04-19T02:37:02.342Z,63.55
2018-04-19T02:39:30.632Z,63.47
2018-04-19T02:41:58.902Z,63.51
2018-04-19T02:44:27.219Z,63.55
2018-04-19T02:46:55.482Z,62.89
2018-04-19T02:49:23.792Z,63.55
2018-04-19T02:51:52.060Z,62.83
2018-04-19T02:54:20.343Z,63.50
2018-04-19T02:56:48.626Z,64.00
2018-04-19T02:59:16.918Z,63.83
2018-04-19T03:01:45.207Z,64.09
2018-04-19T03:04:13.486Z,64.33
2018-04-19T03:06:41.774Z,64.09
2018-04-19T03:09:10.054Z,64.53
2018-04-19T03:11:38.343Z,64.54
2018-04-19T03:14:06.625Z,64.65
2018-04-19T03:16:34.896Z,64.67
2018-04-19T03:19:03.206Z,64.50
2018-04-19T03:21:31.497Z,65.04
2018-04-19T03:23:59.789Z,64.75
2018-04-19T03:29:25.138Z,64.98
2018-04-19T03:31:53.763Z,65.38
2018-04-19T03:34:22.050Z,65.15
2018-04-19T03:36:50.347Z,64.96
2018-04-19T03:39:18.627Z,64.58
2018-04-19T03:41:47.179Z,64.43
2018-04-19T03:44:15.454Z,64.60
2018-04-19T03:46:43.729Z,64.69
2018-04-19T03:49:12.018Z,64.45
2018-04-19T03:51:40.533Z,64.39
2018-04-19T03:54:08.826Z,64.15
2018-04-19T03:56:37.102Z,64.16
2018-04-19T03:59:05.382Z,63.92
2018-04-19T04:01:33.663Z,64.92
2018-04-19T04:04:01.939Z,65.00
2018-04-19T04:06:30.239Z,64.90
2018-04-19T04:08:58.535Z,64.93
2018-04-19T04:11:26.819Z,64.72
2018-04-19T04:13:55.117Z,64.52
2018-04-19T04:16:35.212Z,64.71
2018-04-19T04:19:15.325Z,64.83
2018-04-19T04:21:55.279Z,65.64
2018-04-19T04:24:23.557Z,65.32
2018-04-19T04:26:51.834Z,65.13
2018-04-19T04:29:20.138Z,65.44
2018-04-19T04:31:48.416Z,65.44
2018-04-19T04:34:16.693Z,65.26
2018-04-19T04:36:44.987Z,65.79
2018-04-19T04:39:13.266Z,65.46
2018-04-19T04:41:41.566Z,65.46
2018-04-19T04:44:09.851Z,65.68
2018-04-19T04:46:38.123Z,65.47
2018-04-19T04:49:06.424Z,65.08
2018-04-19T04:51:34.707Z,65.41
2018-04-19T04:54:03.971Z,65.77
2018-04-19T04:56:32.243Z,65.67
2018-04-19T04:59:00.525Z,65.08
2018-04-19T05:01:28.827Z,65.41
2018-04-19T05:03:57.108Z,65.22
2018-04-19T05:06:25.500Z,64.91
2018-04-19T05:08:53.950Z,65.39
2018-04-19T05:11:22.234Z,65.38
2018-04-19T05:13:50.522Z,65.14
2018-04-19T05:16:19.755Z,64.85
2018-04-19T05:18:48.301Z,64.40
2018-04-19T05:21:16.578Z,64.31
2018-04-19T05:23:44.861Z,64.87
2018-04-19T05:26:13.177Z,64.72
2018-04-19T05:28:41.449Z,64.66
2018-04-19T05:31:13.812Z,64.71
2018-04-19T05:33:42.115Z,64.04
2018-04-19T05:36:10.397Z,64.44
2018-04-19T05:38:38.693Z,63.84
2018-04-19T05:41:08.900Z,63.63
2018-04-19T05:43:37.452Z,63.88
2018-04-19T05:46:05.870Z,63.74
2018-04-19T05:48:34.174Z,63.41
2018-04-19T05:51:02.535Z,63.40
2018-04-19T05:53:30.812Z,62.65
2018-04-19T05:55:59.369Z,62.69
2018-04-19T05:58:27.670Z,62.56
2018-04-19T06:00:56.955Z,62.03
2018-04-19T06:03:25.250Z,62.02
2018-04-19T06:05:54.546Z,61.62
2018-04-19T06:08:22.850Z,61.05
2018-04-19T06:10:51.137Z,61.48
2018-04-19T06:13:19.420Z,61.42
2018-04-19T06:15:47.717Z,60.61
2018-04-19T06:18:16.003Z,60.27
2018-04-19T06:20:44.312Z,60.07
2018-04-19T06:23:13.438Z,60.23
2018-04-19T06:25:41.733Z,59.66
2018-04-19T06:28:10.022Z,59.37
2018-04-19T06:30:38.301Z,58.64
2018-04-19T06:33:06.898Z,58.37
2018-04-19T06:35:35.186Z,58.17
2018-04-19T06:38:03.498Z,57.49
2018-04-19T06:40:31.807Z,57.62
2018-04-19T06:43:01.030Z,56.69
2018-04-19T06:45:29.330Z,55.91
2018-04-19T06:47:57.610Z,54.79
2018-04-19T06:50:25.911Z,54.10
2018-04-19T06:52:54.201Z,53.07
2018-04-19T06:55:22.466Z,52.41
2018-04-19T06:57:50.766Z,51.64
2018-04-19T07:00:19.042Z,51.22
2018-04-19T07:02:47.322Z,50.04
2018-04-19T07:05:15.614Z,49.31
2018-04-19T07:07:43.890Z,49.00
2018-04-19T07:10:12.186Z,48.66
2018-04-19T07:12:40.470Z,48.52
2018-04-19T07:15:08.759Z,47.55
2018-04-19T07:17:37.046Z,47.13
2018-04-19T07:20:05.322Z,46.63
2018-04-19T07:22:33.631Z,46.17
2018-04-19T07:25:01.927Z,45.35
2018-04-19T07:27:30.209Z,44.53
2018-04-19T07:29:58.498Z,44.23
2018-04-19T07:32:26.776Z,42.27
2018-04-19T07:34:55.086Z,42.43
2018-04-19T07:37:23.363Z,42.53
2018-04-19T07:39:51.642Z,41.46
2018-04-19T07:42:19.940Z,40.72
2018-04-19T07:44:48.214Z,39.30
2018-04-19T07:47:16.506Z,39.60
2018-04-19T07:49:44.791Z,40.19
2018-04-19T07:52:13.070Z,37.55
2018-04-19T07:54:41.365Z,37.60
2018-04-19T07:57:09.648Z,37.17
2018-04-19T07:59:37.943Z,38.69
2018-04-19T08:02:06.219Z,37.35
2018-04-19T08:04:34.550Z,36.73
2018-04-19T08:07:02.841Z,36.79
2018-04-19T08:09:31.115Z,35.64
2018-04-19T08:11:59.677Z,35.53
2018-04-19T08:14:27.953Z,35.52
2018-04-19T08:16:56.234Z,34.29
2018-04-19T08:19:24.514Z,33.89
2018-04-19T08:21:52.796Z,35.04
2018-04-19T08:24:21.909Z,33.80
2018-04-19T08:26:50.207Z,32.01
2018-04-19T08:29:18.474Z,33.32
2018-04-19T08:31:46.766Z,31.55
2018-04-19T08:34:15.074Z,31.71
2018-04-19T08:36:43.366Z,32.32
2018-04-19T08:39:11.656Z,33.05
2018-04-19T08:41:39.956Z,33.17
2018-04-19T08:44:08.239Z,31.60
2018-04-19T08:46:36.513Z,30.17
2018-04-19T08:49:04.800Z,30.01
2018-04-19T08:51:33.128Z,29.12
2018-04-19T08:54:01.387Z,30.20
2018-04-19T08:56:29.673Z,28.17
2018-04-19T08:58:57.945Z,29.19
2018-04-19T09:01:26.236Z,28.42
2018-04-19T09:03:54.505Z,29.44
2018-04-19T09:06:22.793Z,27.47
2018-04-19T09:08:51.083Z,26.26
2018-04-19T09:11:19.354Z,27.66
2018-04-19T09:13:47.637Z,26.98
2018-04-19T09:16:15.911Z,28.87
2018-04-19T09:18:44.211Z,27.94
2018-04-19T09:21:12.494Z,27.08
2018-04-19T09:23:40.770Z,27.08
2018-04-19T09:26:09.047Z,27.56
2018-04-19T09:28:37.318Z,26.41
2018-04-19T09:31:05.942Z,26.91
2018-04-19T09:33:34.227Z,26.74
2018-04-19T09:36:02.492Z,26.85
2018-04-19T09:38:30.778Z,26.89
2018-04-19T09:40:59.082Z,26.56
2018-04-19T09:43:27.353Z,26.57
2018-04-19T09:45:55.638Z,26.78
2018-04-19T09:48:23.916Z,27.11
2018-04-19T09:50:52.210Z,27.25
2018-04-19T09:53:20.486Z,27.10
2018-04-19T09:55:48.766Z,27.23
2018-04-19T09:58:17.053Z,26.69
2018-04-19T10:00:45.322Z,27.24
2018-04-19T10:03:18.511Z,27.04
2018-04-19T10:05:47.707Z,26.17
2018-04-19T10:08:15.979Z,26.60
2018-04-19T10:10:44.262Z,25.84
2018-04-19T10:13:12.542Z,26.62
2018-04-19T10:15:40.814Z,26.24
2018-04-19T10:18:09.094Z,26.42
2018-04-19T10:20:37.379Z,26.77
2018-04-19T10:23:05.660Z,26.26
2018-04-19T10:25:33.942Z,25.56
2018-04-19T10:28:02.402Z,26.31
2018-04-19T10:33:28.539Z,25.94
2018-04-19T10:35:56.821Z,26.90
2018-04-19T10:38:25.115Z,25.44
2018-04-19T10:40:53.397Z,25.66
2018-04-19T10:43:21.683Z,26.40
2018-04-19T10:45:49.960Z,26.27
2018-04-19T10:48:18.250Z,25.56
2018-04-19T10:50:46.518Z,25.60
2018-04-19T10:53:14.799Z,25.65
2018-04-19T10:55:43.078Z,25.60
2018-04-19T10:58:11.357Z,25.81
2018-04-19T11:00:39.652Z,25.54
2018-04-19T11:03:07.922Z,25.31
2018-04-19T11:05:36.228Z,25.57
2018-04-19T11:08:04.549Z,25.92
2018-04-19T11:10:32.839Z,25.10
2018-04-19T11:13:02.725Z,25.92
2018-04-19T11:15:31.106Z,25.46
2018-04-19T11:17:59.391Z,25.10
2018-04-19T11:20:27.676Z,25.47
2018-04-19T11:22:55.959Z,24.85
2018-04-19T11:25:24.242Z,25.07
2018-04-19T11:27:52.526Z,25.09
2018-04-19T11:30:20.806Z,24.80
2018-04-19T11:32:50.068Z,24.57
2018-04-19T11:35:18.343Z,24.99
2018-04-19T11:37:46.638Z,24.63
2018-04-19T11:40:14.918Z,24.48
2018-04-19T11:42:44.126Z,25.05
2018-04-19T11:45:13.361Z,25.15
2018-04-19T11:47:41.634Z,25.60
2018-04-19T11:50:09.947Z,25.14
2018-04-19T11:52:40.155Z,24.25
2018-04-19T11:55:08.451Z,25.45
2018-04-19T11:57:36.726Z,24.83
2018-04-19T12:00:06.363Z,24.34
2018-04-19T12:02:34.653Z,24.75
2018-04-19T12:05:02.942Z,24.42
2018-04-19T12:07:31.246Z,24.72
2018-04-19T12:09:59.515Z,24.24
2018-04-19T12:12:27.801Z,24.39
2018-04-19T12:14:56.218Z,24.32
2018-04-19T12:17:24.495Z,24.28
2018-04-19T12:19:52.781Z,24.34
2018-04-19T12:22:21.101Z,24.05
2018-04-19T12:24:49.393Z,23.69
2018-04-19T12:27:17.664Z,23.77
2018-04-19T12:29:45.938Z,23.40
2018-04-19T12:32:14.223Z,23.77
2018-04-19T12:34:42.531Z,23.48
2018-04-19T12:37:10.810Z,24.05
2018-04-19T12:39:39.087Z,23.32
2018-04-19T12:42:07.375Z,23.92
2018-04-19T12:44:35.659Z,23.25
2018-04-19T12:47:03.942Z,23.87
2018-04-19T12:49:32.210Z,22.54
2018-04-19T12:52:00.490Z,23.10
2018-04-19T12:54:28.776Z,22.62
2018-04-19T12:56:57.052Z,22.21
2018-04-19T12:59:25.342Z,22.20
2018-04-19T13:01:53.954Z,22.33
2018-04-19T13:04:22.234Z,21.51
2018-04-19T13:06:50.509Z,21.56
2018-04-19T13:09:18.855Z,20.91
2018-04-19T13:11:47.134Z,20.87
2018-04-19T13:14:15.414Z,21.31
2018-04-19T13:16:43.710Z,20.97
2018-04-19T13:19:11.991Z,20.53
2018-04-19T13:21:40.287Z,19.84
2018-04-19T13:24:08.567Z,19.43
2018-04-19T13:26:37.114Z,20.21
2018-04-19T13:29:05.407Z,20.26
2018-04-19T13:31:33.679Z,19.10
2018-04-19T13:34:02.594Z,19.40
2018-04-19T13:36:30.864Z,18.79
2018-04-19T13:38:59.150Z,19.06
2018-04-19T13:41:27.438Z,19.16
2018-04-19T13:43:55.715Z,18.56
2018-04-19T13:46:23.992Z,18.59
2018-04-19T13:48:52.270Z,18.48
2018-04-19T13:51:20.550Z,18.54
2018-04-19T13:53:48.830Z,18.76
2018-04-19T13:56:18.086Z,18.64
2018-04-19T13:58:46.615Z,18.36
2018-04-19T14:01:14.891Z,18.95
2018-04-19T14:03:43.158Z,18.43
2018-04-19T14:06:11.447Z,19.50
2018-04-19T14:08:39.724Z,18.58
2018-04-19T14:11:08.003Z,18.28
2018-04-19T14:13:36.291Z,18.11
2018-04-19T14:16:05.635Z,19.02
2018-04-19T14:18:33.934Z,18.43
2018-04-19T14:21:03.150Z,18.31
2018-04-19T14:23:31.438Z,18.70
2018-04-19T14:25:59.739Z,18.02
2018-04-19T14:28:27.984Z,17.89
2018-04-19T14:30:56.258Z,17.90
2018-04-19T14:33:25.498Z,18.25
2018-04-19T14:35:54.718Z,18.38
2018-04-19T14:38:23.034Z,18.54
2018-04-19T14:40:51.294Z,18.94
2018-04-19T14:43:20.502Z,18.73
2018-04-19T14:45:48.792Z,19.12
2018-04-19T14:48:17.084Z,18.95
2018-04-19T14:50:45.393Z,17.93
2018-04-19T14:53:13.683Z,18.93
2018-04-19T14:55:41.966Z,18.47
2018-04-19T14:58:10.250Z,18.82
2018-04-19T15:00:38.561Z,19.10
2018-04-19T15:03:06.828Z,18.71
2018-04-19T15:05:35.110Z,18.95
2018-04-19T15:08:03.394Z,18.77
2018-04-19T15:10:31.664Z,18.51
2018-04-19T15:12:59.949Z,18.46
2018-04-19T15:15:28.214Z,18.60
2018-04-19T15:17:56.494Z,18.95
2018-04-19T15:20:24.777Z,18.40
2018-04-19T15:22:53.058Z,18.85
2018-04-19T15:25:21.358Z,18.84
2018-04-19T15:27:49.658Z,18.93
2018-04-19T15:30:17.913Z,19.25
2018-04-19T15:32:46.212Z,19.26
2018-04-19T15:35:14.491Z,18.92
2018-04-19T15:37:42.771Z,19.60
2018-04-19T15:40:11.058Z,19.37
2018-04-19T15:42:39.342Z,19.05
2018-04-19T15:45:07.626Z,18.90
2018-04-19T15:47:35.908Z,19.08
2018-04-19T15:50:04.216Z,19.22
2018-04-19T15:52:32.479Z,19.59
2018-04-19T15:55:00.839Z,19.36
2018-04-19T15:57:29.065Z,19.48
2018-04-19T15:59:57.353Z,19.47
2018-04-19T16:02:25.633Z,19.99
2018-04-19T16:04:53.930Z,20.06
2018-04-19T16:07:22.189Z,20.53
2018-04-19T16:09:50.474Z,20.11
2018-04-19T16:12:18.746Z,20.45
2018-04-19T16:14:47.058Z,20.40
2018-04-19T16:17:15.330Z,20.48
2018-04-19T16:19:43.610Z,20.30
2018-04-19T16:22:11.901Z,20.14
2018-04-19T16:24:40.175Z,20.47
2018-04-19T16:27:08.454Z,20.59
2018-04-19T16:29:36.726Z,21.00
2018-04-19T16:32:05.010Z,20.54
2018-04-19T16:34:34.582Z,20.92
2018-04-19T16:37:02.857Z,20.99
2018-04-19T16:39:31.206Z,21.17
2018-04-19T16:41:59.522Z,21.02
2018-04-19T16:44:27.756Z,20.72
2018-04-19T16:46:56.034Z,20.89
2018-04-19T16:49:24.310Z,21.43
2018-04-19T16:51:52.606Z,21.41
2018-04-19T16:54:22.466Z,21.56
2018-04-19T16:56:52.712Z,21.44
2018-04-19T16:59:21.007Z,21.54
2018-04-19T17:01:49.298Z,21.45
2018-04-19T17:04:17.554Z,21.67
2018-04-19T17:06:45.849Z,21.88
2018-04-19T17:09:14.126Z,21.59
2018-04-19T17:11:42.395Z,21.70
2018-04-19T17:14:10.683Z,22.09
2018-04-19T17:16:39.590Z,22.09
2018-04-19T17:19:07.882Z,22.48
2018-04-19T17:21:36.159Z,22.13
2018-04-19T17:24:04.450Z,22.41
2018-04-19T17:26:32.726Z,22.65
2018-04-19T17:29:01.016Z,23.06
2018-04-19T17:31:29.287Z,23.23
2018-04-19T17:33:57.576Z,23.09
2018-04-19T17:36:25.854Z,24.25
2018-04-19T17:38:54.138Z,24.73
2018-04-19T17:41:22.407Z,23.95
2018-04-19T17:43:50.693Z,23.98
2018-04-19T17:46:18.971Z,23.73
2018-04-19T17:48:47.254Z,25.17
2018-04-19T17:51:15.517Z,25.93
2018-04-19T17:53:43.812Z,26.04
2018-04-19T17:56:12.070Z,26.49
2018-04-19T17:58:40.348Z,26.73
2018-04-19T18:01:08.631Z,27.22
2018-04-19T18:03:36.902Z,28.16
2018-04-19T18:06:06.125Z,29.21
2018-04-19T18:08:34.401Z,29.63
2018-04-19T18:11:02.677Z,28.08
2018-04-19T18:13:30.950Z,28.06
2018-04-19T18:15:59.235Z,28.46
2018-04-19T18:18:27.502Z,29.01
2018-04-19T18:20:55.788Z,29.57
2018-04-19T18:23:24.055Z,29.67
2018-04-19T18:25:52.346Z,30.12
2018-04-19T18:28:20.646Z,30.30
2018-04-19T18:30:48.939Z,31.39
2018-04-19T18:33:17.195Z,31.35
2018-04-19T18:35:45.482Z,32.82
2018-04-19T18:38:13.755Z,33.45
2018-04-19T18:40:42.030Z,33.20
2018-04-19T18:43:10.329Z,33.53
2018-04-19T18:45:38.594Z,34.32
2018-04-19T18:48:06.884Z,33.97
2018-04-19T18:50:35.169Z,34.87
2018-04-19T18:53:03.452Z,34.53
2018-04-19T18:55:33.659Z,34.82
2018-04-19T18:58:01.966Z,36.16
2018-04-19T19:00:30.258Z,36.75
2018-04-19T19:02:58.552Z,36.36
2018-04-19T19:05:26.838Z,36.28
2018-04-19T19:07:55.126Z,37.07
2018-04-19T19:10:23.409Z,37.46
2018-04-19T19:12:51.683Z,36.95
2018-04-19T19:18:49.451Z,38.16
2018-04-19T19:21:17.718Z,38.59
2018-04-19T19:23:46.011Z,38.40
2018-04-19T19:26:14.300Z,39.00
2018-04-19T19:28:42.579Z,39.28
2018-04-19T19:31:10.858Z,38.85
2018-04-19T19:33:39.142Z,40.15
2018-04-19T19:36:07.423Z,40.32
2018-04-19T19:38:35.731Z,41.04
2018-04-19T19:41:03.998Z,41.20
2018-04-19T19:43:32.290Z,40.64
2018-04-19T19:46:00.609Z,40.58
2018-04-19T19:48:28.895Z,39.72
2018-04-19T19:50:57.189Z,39.48
2018-04-19T19:53:26.057Z,38.80
2018-04-19T19:55:54.382Z,39.46
2018-04-19T19:58:22.659Z,38.28
2018-04-19T20:00:50.958Z,39.06
2018-04-19T20:03:20.247Z,39.18
2018-04-19T20:05:48.528Z,40.10
2018-04-19T20:08:16.812Z,40.06
2018-04-19T20:10:45.115Z,40.05
2018-04-19T20:13:14.327Z,39.59
2018-04-19T20:15:42.668Z,39.08
2018-04-19T20:18:13.578Z,40.37
2018-04-19T20:20:43.786Z,39.81
2018-04-19T20:23:12.103Z,40.61
2018-04-19T20:25:40.407Z,40.17
2018-04-19T20:28:08.897Z,40.45
2018-04-19T20:30:37.360Z,41.28
2018-04-19T20:33:05.647Z,40.96
2018-04-19T20:35:33.963Z,40.67
2018-04-19T20:38:02.198Z,40.60
2018-04-19T20:40:30.491Z,40.76
2018-04-19T20:42:58.778Z,40.90
2018-04-19T20:45:28.065Z,40.03
2018-04-19T20:47:56.358Z,40.54
2018-04-19T20:50:24.639Z,40.37
2018-04-19T20:52:52.923Z,40.15
2018-04-19T20:55:21.199Z,40.09
2018-04-19T20:57:49.503Z,40.40
2018-04-19T21:00:18.919Z,40.06
2018-04-19T21:02:47.540Z,40.69
2018-04-19T21:05:15.859Z,40.37
2018-04-19T21:07:45.146Z,40.48
2018-04-19T21:10:13.391Z,40.80
2018-04-19T21:12:41.665Z,41.18
2018-04-19T21:15:09.988Z,41.41
2018-04-19T21:17:38.276Z,41.86
2018-04-19T21:20:06.562Z,42.68
2018-04-19T21:22:34.846Z,42.97
2018-04-19T21:25:03.151Z,43.55
2018-04-19T21:27:31.411Z,43.32
2018-04-19T21:29:59.696Z,43.53
2018-04-19T21:32:28.281Z,43.82
2018-04-19T21:34:57.411Z,44.03
2018-04-19T21:37:25.689Z,44.44
2018-04-19T21:39:53.974Z,45.39
2018-04-19T21:42:22.246Z,45.24
2018-04-19T21:44:50.534Z,45.73
2018-04-19T21:47:18.814Z,46.48
2018-04-19T21:49:47.114Z,46.65
2018-04-19T21:52:15.390Z,47.55
2018-04-19T21:54:43.934Z,47.98
2018-04-19T21:57:12.210Z,47.49
2018-04-19T21:59:40.482Z,48.56
2018-04-19T22:02:08.798Z,48.57
2018-04-19T22:04:37.078Z,49.30
2018-04-19T22:07:05.397Z,49.06
2018-04-19T22:09:33.658Z,48.80
2018-04-19T22:12:01.941Z,48.85
2018-04-19T22:14:30.222Z,49.09
2018-04-19T22:16:58.522Z,49.24
2018-04-19T22:19:26.807Z,49.76
2018-04-19T22:21:55.093Z,50.07
2018-04-19T22:24:23.410Z,49.75
2018-04-19T22:26:51.701Z,49.72
2018-04-19T22:29:19.969Z,49.88
2018-04-19T22:31:48.254Z,50.83
2018-04-19T22:34:16.524Z,50.46
2018-04-19T22:36:44.805Z,50.60
2018-04-19T22:39:13.081Z,51.13
2018-04-19T22:41:41.643Z,50.72
2018-04-19T22:44:09.917Z,50.53
2018-04-19T22:46:38.218Z,50.39
2018-04-19T22:49:06.514Z,50.58
2018-04-19T22:51:34.794Z,50.11
2018-04-19T22:54:03.082Z,50.71
2018-04-19T22:56:31.359Z,50.49
2018-04-19T22:58:59.646Z,50.66
2018-04-19T23:01:27.933Z,50.56
2018-04-19T23:03:56.222Z,50.80
2018-04-19T23:06:24.502Z,51.38
2018-04-19T23:08:52.786Z,51.06
2018-04-19T23:11:21.062Z,51.05
2018-04-19T23:13:49.346Z,51.69
2018-04-19T23:16:17.625Z,51.96
2018-04-19T23:18:45.913Z,52.00
2018-04-19T23:21:14.189Z,52.47
2018-04-19T23:23:42.491Z,52.43
2018-04-19T23:26:10.765Z,51.99
2018-04-19T23:28:39.038Z,51.96
2018-04-19T23:31:07.326Z,52.16
2018-04-19T23:33:35.618Z,52.90
2018-04-19T23:36:03.890Z,52.71
2018-04-19T23:38:32.199Z,52.84
2018-04-19T23:41:00.450Z,53.34
2018-04-19T23:43:28.747Z,53.74
2018-04-19T23:45:57.037Z,53.99
2018-04-19T23:48:25.313Z,53.40
2018-04-19T23:50:53.631Z,53.48
2018-04-19T23:53:21.906Z,53.55
2018-04-19T23:55:50.199Z,54.31
2018-04-19T23:58:18.478Z,54.07
